CDT,Max TemperatureF,Mean TemperatureF,Min TemperatureF,Max Dew PointF,MeanDew PointF,Min DewpointF,Max Humidity, Mean Humidity, Min Humidity, Max Sea Level PressureIn, Mean Sea Level PressureIn, Min Sea Level PressureIn, Max VisibilityMiles, Mean VisibilityMiles, Min VisibilityMiles, Max Wind SpeedMPH, Mean Wind SpeedMPH, Max Gust SpeedMPH,PrecipitationIn, CloudCover, Events, WindDirDegrees
2012-10-1,82,70,59,66,54,43,100,66,25,29.97,29.92,29.88,10,8,0,16,4,21,0.00,2,Fog,337
2012-10-2,80,70,59,54,49,43,77,55,28,30.06,29.99,29.94,10,10,7,10,6,20,0.00,0,,346
2012-10-3,86,70,55,54,50,45,82,53,25,29.99,29.95,29.89,10,10,10,17,9,28,0.00,0,,166
2012-10-4,84,72,59,66,57,48,83,63,47,30.15,30.06,29.96,10,10,10,17,10,22,0.00,4,,189
2012-10-5,73,64,55,54,51,48,88,64,47,30.13,30.10,30.04,10,10,10,15,4,22,0.00,5,,360
2012-10-6,55,50,46,46,41,34,81,67,54,30.29,30.19,30.12,10,10,4,15,11,20,0.00,8,,33
2012-10-7,50,47,42,34,32,32,66,55,50,30.33,30.27,30.23,10,9,7,15,8,20,0.00,8,,48
2012-10-8,41,38,35,34,32,30,87,81,75,30.24,30.24,30.23,10,10,10,4,0,,0.00,0,,220
2012-10-9,86,75,64,59,56,54,83,50,33,29.97,29.89,29.84,10,10,10,17,13,25,0.00,0,,212
2012-10-10,64,60,57,63,60,55,100,93,77,30.18,30.10,29.97,10,5,0,12,5,,0.02,6,Fog-Rain,29
2012-10-11,87,74,62,73,65,63,100,83,46,30.13,30.09,30.02,10,6,0,16,3,23,0.00,6,Fog,162
2012-10-12,86,78,69,68,65,61,88,68,45,30.17,30.10,30.03,10,10,10,15,10,24,0.00,4,,175
2012-10-13,84,78,71,70,67,61,78,69,58,30.05,29.92,29.79,10,10,10,25,16,36,0.00,3,Rain-Thunderstorm,186
2012-10-14,82,68,53,63,44,36,78,46,19,30.15,30.07,29.91,10,10,10,16,7,21,0.00,0,,318
2012-10-15,86,68,50,50,45,41,82,52,20,30.15,30.07,29.98,10,10,10,10,4,,0.00,0,,187
2012-10-16,84,73,62,63,52,46,73,50,37,29.97,29.79,29.65,10,10,10,24,12,31,0.00,0,,196
2012-10-17,87,72,57,63,50,36,83,48,18,29.84,29.68,29.59,10,10,10,22,13,30,0.00,0,,287
2012-10-18,78,60,42,41,31,23,66,35,14,30.05,29.97,29.84,10,10,10,10,4,,0.00,0,,50
2012-10-19,82,62,41,39,34,30,76,41,16,30.08,29.99,29.89,10,10,10,12,4,,0.00,0,,202
2012-10-20,91,73,55,63,49,34,61,44,28,29.89,29.79,29.70,10,10,10,20,11,30,0.00,0,,191
2012-10-21,91,81,71,68,63,61,83,56,36,29.84,29.80,29.76,10,10,10,22,14,30,0.00,0,,192
2012-10-22,78,71,64,68,64,61,94,79,57,30.04,29.92,29.84,10,10,4,18,11,30,0.49,4,Rain-Thunderstorm,162
2012-10-23,86,78,69,68,65,63,94,69,48,29.94,29.90,29.85,10,10,10,21,13,28,0.00,2,,187
2012-10-24,86,78,69,64,63,57,83,64,45,29.94,29.87,29.79,10,10,10,20,12,29,0.00,3,,178
2012-10-25,73,62,51,63,50,36,78,59,42,30.17,29.95,29.76,10,10,10,21,15,29,0.00,4,,14
2012-10-26,55,48,41,36,32,27,70,54,35,30.37,30.28,30.17,10,10,10,20,13,28,0.00,4,,15
2012-10-27,60,46,32,30,27,21,87,55,23,30.37,30.29,30.18,10,10,10,9,4,,0.00,0,,8
2012-10-28,66,48,30,37,29,25,93,55,24,30.31,30.24,30.18,10,10,10,8,2,,0.00,0,,113
2012-10-29,73,53,33,36,32,30,87,54,22,30.29,30.21,30.10,10,10,10,10,5,28,0.00,0,,167
2012-10-30,80,63,46,45,39,32,67,43,21,30.10,30.02,29.95,10,10,10,10,7,,0.00,0,,202
2012-10-31,86,66,46,50,43,34,93,53,15,30.09,30.02,29.97,10,10,10,9,4,,0.00,0,,228